Time;durP1;ratioP1;P1;durP2;ratioP2;P2;SDS_P1;SDS_P2;PMS_P1;PMS_P2;Temp;Humidity;BMP_temperature;BMP_pressure;BME280_temperature;BME280_humidity;BME280_pressure;Samples;Min_cycle;Max_cycle;Signal;HPM_P1;HPM_P2
2022/10/19 00:00:06;;;;;;;20.58;10.82;;;16.60;99.90;;;15.97;100.00;101591.22;4154883;28;20069;-78
2022/10/19 00:02:07;;;;;;;19.25;13.13;;;16.60;99.90;;;15.93;100.00;101584.56;4155244;28;20037;-78
2022/10/19 00:04:08;;;;;;;23.23;11.85;;;16.50;99.90;;;15.81;100.00;101569.13;4155129;28;20037;-78
2022/10/19 00:06:25;;;;;;;19.23;11.50;;;16.60;99.90;;;15.85;100.00;101562.47;4155023;28;20026;-78
2022/10/19 00:08:26;;;;;;;19.40;11.52;;;16.60;99.90;;;15.88;100.00;101578.94;4169272;28;20025;-78
2022/10/19 00:10:28;;;;;;;19.10;10.68;;;16.60;99.90;;;15.80;100.00;101576.28;4155090;28;20034;-78
2022/10/19 00:12:28;;;;;;;20.58;12.38;;;16.50;99.90;;;15.84;100.00;101584.75;4170186;28;20116;-78
2022/10/19 00:14:29;;;;;;;21.45;11.88;;;16.50;99.90;;;15.80;100.00;101586.91;4153311;28;20100;-78
2022/10/19 00:16:36;;;;;;;20.08;11.35;;;16.50;99.90;;;15.75;100.00;101575.13;4169983;28;20095;-78
2022/10/19 00:18:37;;;;;;;22.15;12.02;;;16.50;99.90;;;15.75;100.00;101577.78;4170245;28;20018;-78
2022/10/19 00:20:38;;;;;;;23.90;13.18;;;16.40;99.90;;;15.85;100.00;101583.78;4153791;28;20386;-78
2022/10/19 00:22:39;;;;;;;23.33;12.52;;;16.50;99.90;;;15.80;100.00;101567.50;4154800;28;20025;-78
2022/10/19 00:24:40;;;;;;;23.17;12.05;;;16.50;99.90;;;15.76;100.00;101561.69;4170140;28;20029;-78
2022/10/19 00:26:41;;;;;;;20.52;12.73;;;16.50;99.90;;;15.80;100.00;101562.16;4154818;28;20033;-78
2022/10/19 00:28:43;;;;;;;25.00;14.02;;;16.50;99.90;;;15.84;100.00;101571.44;4170001;28;20103;-78
2022/10/19 00:30:44;;;;;;;18.88;12.35;;;16.50;99.90;;;15.74;100.00;101552.22;4169708;28;20033;-78
2022/10/19 00:32:45;;;;;;;18.00;11.02;;;16.50;99.90;;;15.81;100.00;101569.97;4153302;28;20046;-78
2022/10/19 00:34:45;;;;;;;18.17;11.20;;;16.50;99.90;;;15.81;100.00;101569.97;4170093;28;20025;-78
2022/10/19 00:36:46;;;;;;;21.27;12.35;;;16.50;99.90;;;15.71;100.00;101547.22;4169884;28;20467;-78
2022/10/19 00:38:48;;;;;;;19.70;11.57;;;16.50;99.90;;;15.79;100.00;101565.81;4153481;28;20022;-78
2022/10/19 00:40:49;;;;;;;18.30;11.15;;;16.50;99.90;;;15.75;100.00;101559.16;4153261;28;20033;-78
2022/10/19 00:42:55;;;;;;;19.65;11.35;;;16.50;99.90;;;15.62;100.00;101548.25;4154743;28;20033;-78
2022/10/19 00:45:00;;;;;;;23.13;11.45;;;16.40;99.90;;;15.72;100.00;101564.81;4153118;28;20058;-78
2022/10/19 00:47:06;;;;;;;22.58;11.32;;;16.40;99.90;;;15.67;100.00;101556.53;4153213;28;20049;-78
2022/10/19 00:49:18;;;;;;;15.00;10.40;;;16.40;99.90;;;15.55;100.00;101545.41;4169570;28;20056;-78
2022/10/19 00:51:21;;;;;;;18.05;11.02;;;16.40;99.90;;;15.54;100.00;101545.56;4169629;28;20052;-78
2022/10/19 00:53:25;;;;;;;19.52;11.27;;;16.30;99.90;;;15.56;100.00;101547.06;4154347;28;20021;-78
2022/10/19 00:55:25;;;;;;;18.60;10.57;;;16.30;99.90;;;15.45;100.00;101542.91;4169167;28;20052;-78
2022/10/19 00:57:29;;;;;;;20.83;11.73;;;16.30;99.90;;;15.40;100.00;101528.47;4154558;28;20030;-78
2022/10/19 00:59:30;;;;;;;18.85;11.98;;;16.30;99.90;;;15.54;100.00;101556.22;4169337;28;20048;-78
2022/10/19 01:01:33;;;;;;;33.58;13.50;;;16.20;99.90;;;15.45;100.00;101532.25;4169475;28;20025;-78
2022/10/19 01:03:34;;;;;;;17.42;11.43;;;16.20;99.90;;;15.42;100.00;101527.28;4153987;28;20026;-78
2022/10/19 01:05:35;;;;;;;25.13;12.90;;;16.20;99.90;;;15.49;100.00;101544.28;4153152;28;20025;-78
2022/10/19 01:07:36;;;;;;;21.40;12.60;;;16.20;99.90;;;15.53;100.00;101550.06;4169395;28;20037;-78
2022/10/19 01:09:37;;;;;;;17.50;12.70;;;16.20;99.90;;;15.49;100.00;101554.91;4154102;28;20053;-78
2022/10/19 01:12:15;;;;;;;19.25;11.95;;;16.10;99.90;;;15.44;100.00;101548.41;4154078;28;20044;-78
2022/10/19 01:14:55;;;;;;;18.83;11.75;;;16.20;99.90;;;15.40;100.00;101549.72;4168881;28;20037;-78
2022/10/19 01:17:04;;;;;;;17.40;10.95;;;16.10;99.90;;;15.39;100.00;101553.38;4154212;28;20034;-78
2022/10/19 01:19:57;;;;;;;19.75;10.75;;;16.10;99.90;;;15.21;100.00;101521.66;4153976;28;20034;-78
2022/10/19 01:22:10;;;;;;;22.45;11.88;;;16.00;99.90;;;15.30;100.00;101555.22;4152594;28;20030;-78
2022/10/19 01:24:28;;;;;;;23.90;13.40;;;16.00;99.90;;;15.28;100.00;101545.75;4154015;28;20389;-78
2022/10/19 01:27:19;;;;;;;19.45;11.23;;;16.00;99.90;;;15.22;100.00;101530.47;4157700;28;20057;-78
2022/10/19 01:29:41;;;;;;;24.15;11.75;;;15.90;99.90;;;15.22;100.00;101531.31;4135385;28;20113;-78
2022/10/19 01:32:12;;;;;;;21.02;11.50;;;15.90;99.90;;;15.18;100.00;101524.66;4151998;28;20496;-78
2022/10/19 01:34:52;;;;;;;17.33;10.18;;;15.90;99.90;;;15.12;100.00;101516.50;4143489;28;20065;-78
